Time;durP1;ratioP1;P1;durP2;ratioP2;P2;SDS_P1;SDS_P2;PMS_P1;PMS_P2;Temp;Humidity;BMP_temperature;BMP_pressure;BME280_temperature;BME280_humidity;BME280_pressure;Samples;Min_cycle;Max_cycle;Signal;HPM_P1;HPM_P2
2022/10/24 00:01:18;;;;;;;;;;;;;;;20.91;61.33;100552.06;5005257;28;2797;-61
2022/10/24 00:03:44;;;;;;;;;;;;;;;20.89;61.56;100538.38;5008537;28;2939;-61
2022/10/24 00:06:11;;;;;;;;;;;;;;;20.90;61.52;100544.84;5012037;28;2890;-61
2022/10/24 00:08:37;;;;;;;;;;;;;;;20.90;61.60;100557.09;5008506;28;2585;-61
2022/10/24 00:11:07;;;;;;;;;;;;;;;20.90;61.42;100565.75;5010780;28;2758;-61
2022/10/24 00:13:34;;;;;;;;;;;;;;;20.89;61.34;100572.91;5011389;28;2813;-61
2022/10/24 00:16:00;;;;;;;;;;;;;;;20.88;61.48;100577.16;5008028;28;2894;-61
2022/10/24 00:18:26;;;;;;;;;;;;;;;20.87;61.42;100569.94;5007697;28;2950;-61
2022/10/24 00:20:53;;;;;;;;;;;;;;;20.88;61.63;100574.28;5011343;28;2829;-61
2022/10/24 00:23:19;;;;;;;;;;;;;;;20.87;61.43;100564.19;5014536;28;2845;-61
2022/10/24 00:25:45;;;;;;;;;;;;;;;20.88;61.69;100559.91;5010149;28;3022;-61
2022/10/24 00:28:12;;;;;;;;;;;;;;;20.90;61.43;100551.34;5007809;28;2830;-61
2022/10/24 00:30:38;;;;;;;;;;;;;;;20.89;61.59;100555.63;5003964;28;3163;-61
2022/10/24 00:33:04;;;;;;;;;;;;;;;20.88;61.36;100559.91;5015205;28;2521;-62
2022/10/24 00:35:32;;;;;;;;;;;;;;;20.91;61.41;100554.97;5013039;28;2944;-61
2022/10/24 00:37:58;;;;;;;;;;;;;;;20.91;61.56;100555.72;5008018;28;3112;-61
2022/10/24 00:40:24;;;;;;;;;;;;;;;20.88;61.30;100559.91;5008758;28;2762;-61
2022/10/24 00:42:51;;;;;;;;;;;;;;;20.86;61.44;100562.69;5013610;28;2761;-61
2022/10/24 00:45:36;;;;;;;;;;;;;;;20.88;61.69;100582.94;5010557;28;3120;-61
2022/10/24 00:48:09;;;;;;;;;;;;;;;20.89;61.27;100595.16;5004650;28;3002;-61
2022/10/24 00:50:35;;;;;;;;;;;;;;;20.87;61.43;100592.97;5019367;28;2866;-61
2022/10/24 00:53:01;;;;;;;;;;;;;;;20.88;61.54;100591.56;5007951;28;2899;-61
2022/10/24 00:55:28;;;;;;;;;;;;;;;20.89;61.39;100601.69;5010058;28;2936;-61
2022/10/24 00:57:54;;;;;;;;;;;;;;;20.89;61.65;100590.16;5010638;28;2984;-61
2022/10/24 01:00:25;;;;;;;;;;;;;;;20.86;61.58;100597.22;5014864;28;3116;-61
2022/10/24 01:02:51;;;;;;;;;;;;;;;20.87;61.52;100592.97;5007778;28;2825;-61
2022/10/24 01:05:18;;;;;;;;;;;;;;;20.86;61.46;100593.63;4999935;28;3336;-61
2022/10/24 01:08:03;;;;;;;;;;;;;;;20.86;61.53;100591.47;5006714;28;2986;-61
2022/10/24 01:10:36;;;;;;;;;;;;;;;20.84;61.66;100585.63;5012516;28;3026;-61
2022/10/24 01:13:22;;;;;;;;;;;;;;;20.85;61.44;100595.75;4994387;28;2996;-61
2022/10/24 01:16:01;;;;;;;;;;;;;;;20.86;61.55;100591.47;5000955;28;2848;-61
2022/10/24 01:18:46;;;;;;;;;;;;;;;20.84;61.65;100568.38;5011885;28;3090;-61
2022/10/24 01:21:32;;;;;;;;;;;;;;;20.84;61.53;100553.25;4998404;28;2930;-60
2022/10/24 01:24:11;;;;;;;;;;;;;;;20.83;61.53;100546.75;4999950;28;2937;-60
2022/10/24 01:26:38;;;;;;;;;;;;;;;20.84;61.68;100556.13;5024052;28;2868;-60
2022/10/24 01:29:17;;;;;;;;;;;;;;;20.85;61.77;100558.34;5003675;28;3039;-61
2022/10/24 01:31:48;;;;;;;;;;;;;;;20.85;61.70;100549.72;5017703;28;2752;-60
2022/10/24 01:34:16;;;;;;;;;;;;;;;20.85;61.67;100549.72;5008534;28;2772;-60
2022/10/24 01:36:47;;;;;;;;;;;;;;;20.85;61.50;100548.97;5020793;28;2782;-60
2022/10/24 01:39:14;;;;;;;;;;;;;;;20.84;61.63;100548.22;5009800;28;2920;-60
2022/10/24 01:41:40;;;;;;;;;;;;;;;20.84;61.48;100553.25;5009604;28;2851;-61
2022/10/24 01:44:08;;;;;;;;;;;;;;;20.84;61.56;100542.47;5007004;28;2740;-60
2022/10/24 01:46:36;;;;;;;;;;;;;;;20.83;61.63;100537.38;5016419;28;2966;-60
2022/10/24 01:49:07;;;;;;;;;;;;;;;20.83;61.80;100535.25;5006679;28;2917;-61
2022/10/24 01:51:33;;;;;;;;;;;;;;;20.84;61.73;100518.72;5008587;28;2692;-60
2022/10/24 01:53:59;;;;;;;;;;;;;;;20.80;61.77;100530.81;5005543;28;2809;-60
2022/10/24 01:56:26;;;;;;;;;;;;;;;20.82;61.52;100533.00;4998449;28;2989;-60
2022/10/24 01:58:52;;;;;;;;;;;;;;;20.82;61.47;100521.50;5007660;28;3267;-60
2022/10/24 02:01:20;;;;;;;;;;;;;;;20.81;61.80;100512.13;5022026;28;2786;-60
2022/10/24 02:03:49;;;;;;;;;;;;;;;20.81;61.51;100497.75;5009674;28;3022;-60
2022/10/24 02:06:17;;;;;;;;;;;;;;;20.80;61.54;100507.78;5021460;28;3168;-60
2022/10/24 02:08:44;;;;;;;;;;;;;;;20.80;61.52;100504.16;5023537;28;3196;-60
2022/10/24 02:11:10;;;;;;;;;;;;;;;20.81;61.67;100502.78;5011071;28;3003;-60
2022/10/24 02:13:52;;;;;;;;;;;;;;;20.80;61.76;100486.88;5004950;28;2919;-60
2022/10/24 02:16:18;;;;;;;;;;;;;;;20.78;61.50;100499.09;5017233;28;2866;-60
2022/10/24 02:18:45;;;;;;;;;;;;;;;20.79;61.56;100500.53;5009483;28;2878;-60
2022/10/24 02:21:50;;;;;;;;;;;;;;;20.79;61.50;100500.53;5006752;28;2945;-60
2022/10/24 02:24:23;;;;;;;;;;;;;;;20.76;61.71;100496.13;4958766;28;3077;-60
2022/10/24 02:26:51;;;;;;;;;;;;;;;20.77;61.73;100494.72;4951749;28;3155;-60
2022/10/24 02:29:18;;;;;;;;;;;;;;;20.78;61.67;100487.56;4990950;28;2961;-60
2022/10/24 02:31:49;;;;;;;;;;;;;;;20.75;61.55;100477.38;5007566;28;2940;-60
2022/10/24 02:34:15;;;;;;;;;;;;;;;20.76;61.60;100473.09;5009617;28;2810;-61
2022/10/24 02:36:41;;;;;;;;;;;;;;;20.76;61.79;100478.84;5013115;28;3160;-61
2022/10/24 02:39:07;;;;;;;;;;;;;;;20.76;61.72;100483.88;5039340;28;2735;-60
2022/10/24 02:41:34;;;;;;;;;;;;;;;20.77;61.50;100480.31;5006379;28;3148;-60
2022/10/24 02:44:01;;;;;;;;;;;;;;;20.77;61.66;100497.59;5009193;28;2746;-61
2022/10/24 02:46:27;;;;;;;;;;;;;;;20.78;61.61;100487.56;5027915;28;2940;-60
2022/10/24 02:48:55;;;;;;;;;;;;;;;20.82;61.22;100486.97;5014094;28;2888;-61
2022/10/24 02:51:21;;;;;;;;;;;;;;;20.82;61.30;100496.38;5011374;28;2680;-61
2022/10/24 02:53:48;;;;;;;;;;;;;;;20.83;61.26;100483.44;5013793;28;2812;-61
2022/10/24 02:56:14;;;;;;;;;;;;;;;20.86;61.41;100475.63;5003232;28;3171;-61
2022/10/24 02:58:41;;;;;;;;;;;;;;;20.86;61.50;100470.59;5022506;28;2917;-61
2022/10/24 03:01:07;;;;;;;;;;;;;;;20.88;61.19;100479.31;5012673;28;2929;-61
2022/10/24 03:03:33;;;;;;;;;;;;;;;20.89;61.12;100477.94;5010867;28;2900;-60
2022/10/24 03:06:00;;;;;;;;;;;;;;;20.91;61.11;100483.00;5008199;28;2758;-60
2022/10/24 03:08:26;;;;;;;;;;;;;;;20.91;61.43;100488.75;5009103;28;2890;-60
2022/10/24 03:10:52;;;;;;;;;;;;;;;20.91;61.24;100494.53;5005502;28;2948;-61
2022/10/24 03:13:19;;;;;;;;;;;;;;;20.90;61.49;100488.03;5008132;28;2874;-60
2022/10/24 03:15:45;;;;;;;;;;;;;;;20.90;61.33;100493.78;5013810;28;3091;-60
2022/10/24 03:18:12;;;;;;;;;;;;;;;20.91;61.33;100483.00;5007918;28;2902;-61
2022/10/24 03:20:39;;;;;;;;;;;;;;;20.91;61.32;100491.63;5009880;28;2868;-60
2022/10/24 03:23:05;;;;;;;;;;;;;;;20.91;61.51;100495.28;5008456;28;2935;-60
2022/10/24 03:25:31;;;;;;;;;;;;;;;20.92;61.42;100490.25;5022454;28;2996;-60
2022/10/24 03:27:58;;;;;;;;;;;;;;;20.90;61.52;100482.28;5012366;28;2600;-60
2022/10/24 03:30:24;;;;;;;;;;;;;;;20.91;61.69;100494.53;5009682;28;2961;-60
2022/10/24 03:32:50;;;;;;;;;;;;;;;20.89;61.75;100492.31;5012789;28;3049;-60
2022/10/24 03:35:17;;;;;;;;;;;;;;;20.90;61.61;100493.78;5008062;28;2833;-60
2022/10/24 03:37:43;;;;;;;;;;;;;;;20.91;61.72;100488.75;5009139;28;2874;-60
2022/10/24 03:40:09;;;;;;;;;;;;;;;20.89;61.71;100486.56;5007959;28;3111;-60
2022/10/24 03:42:36;;;;;;;;;;;;;;;20.89;61.71;100486.56;5009922;28;2892;-60
2022/10/24 03:45:02;;;;;;;;;;;;;;;20.88;61.98;100478.59;5014119;28;2750;-60
2022/10/24 03:47:28;;;;;;;;;;;;;;;20.87;61.85;100480.72;5008765;28;3012;-60
2022/10/24 03:49:55;;;;;;;;;;;;;;;20.86;62.11;100482.13;5012598;28;2841;-60
2022/10/24 03:52:21;;;;;;;;;;;;;;;20.88;61.82;100492.97;5002302;28;2852;-60
2022/10/24 03:54:47;;;;;;;;;;;;;;;20.87;61.87;100494.38;5007013;28;2819;-60
2022/10/24 03:57:14;;;;;;;;;;;;;;;20.86;61.89;100490.00;5012403;28;2820;-60
2022/10/24 03:59:40;;;;;;;;;;;;;;;20.86;61.81;100493.63;5010924;28;2837;-60
2022/10/24 04:02:07;;;;;;;;;;;;;;;20.86;61.96;100493.63;5007429;28;2983;-60
2022/10/24 04:04:33;;;;;;;;;;;;;;;20.83;61.81;100483.44;5007314;28;2938;-60
2022/10/24 04:06:59;;;;;;;;;;;;;;;20.85;61.77;100486.41;5013578;28;3354;-60
2022/10/24 04:09:26;;;;;;;;;;;;;;;20.85;62.01;100480.66;5008812;28;3195;-60
2022/10/24 04:11:52;;;;;;;;;;;;;;;20.85;61.72;100485.66;5008577;28;3025;-60
2022/10/24 04:14:19;;;;;;;;;;;;;;;20.83;61.77;100486.31;5007136;28;2914;-60
2022/10/24 04:16:45;;;;;;;;;;;;;;;20.84;61.72;100482.03;5000192;28;2883;-60
2022/10/24 04:19:11;;;;;;;;;;;;;;;20.84;61.85;100479.16;5012566;28;2862;-60
2022/10/24 04:21:38;;;;;;;;;;;;;;;20.82;61.98;100481.97;5006174;28;2822;-60
2022/10/24 04:24:04;;;;;;;;;;;;;;;20.83;61.81;100483.44;5005528;28;2891;-60
2022/10/24 04:26:31;;;;;;;;;;;;;;;20.84;61.87;100484.91;5010881;28;2965;-60
2022/10/24 04:28:57;;;;;;;;;;;;;;;20.83;61.58;100482.72;5009742;28;2850;-60
2022/10/24 04:31:23;;;;;;;;;;;;;;;20.81;61.87;100471.84;5010878;28;2889;-60
2022/10/24 04:33:49;;;;;;;;;;;;;;;20.82;61.75;100476.22;5008908;28;2800;-60
2022/10/24 04:36:16;;;;;;;;;;;;;;;20.80;61.67;100479.03;5005073;28;2881;-60
2022/10/24 04:38:42;;;;;;;;;;;;;;;20.82;61.60;100475.47;5012891;28;2888;-60
2022/10/24 04:41:08;;;;;;;;;;;;;;;20.80;61.79;100479.03;5006403;28;2862;-60
2022/10/24 04:43:37;;;;;;;;;;;;;;;20.80;61.67;100487.66;5013831;28;2959;-60
2022/10/24 04:46:04;;;;;;;;;;;;;;;20.81;61.79;100486.25;5011497;28;2880;-60
2022/10/24 04:48:30;;;;;;;;;;;;;;;20.79;61.75;100491.19;5009098;28;2859;-60
2022/10/24 04:50:56;;;;;;;;;;;;;;;20.79;61.53;100491.91;5002405;28;2784;-60
2022/10/24 04:53:23;;;;;;;;;;;;;;;20.78;61.68;100504.84;5004607;28;2935;-61
2022/10/24 04:55:49;;;;;;;;;;;;;;;20.78;61.69;100501.22;5012419;28;2965;-60
2022/10/24 04:58:15;;;;;;;;;;;;;;;20.79;61.45;100506.31;5006379;28;2466;-61
2022/10/24 05:00:45;;;;;;;;;;;;;;;20.80;61.59;100516.44;5016830;28;2938;-61
2022/10/24 05:03:12;;;;;;;;;;;;;;;20.80;61.47;100510.66;5010035;28;2919;-61
2022/10/24 05:05:38;;;;;;;;;;;;;;;20.81;61.51;100511.41;5014703;28;2951;-61
2022/10/24 05:08:04;;;;;;;;;;;;;;;20.79;61.52;100517.81;5007310;28;2991;-61
2022/10/24 05:10:31;;;;;;;;;;;;;;;20.76;61.56;100501.88;5012361;28;2841;-61
2022/10/24 05:12:57;;;;;;;;;;;;;;;20.76;61.61;100496.13;5001008;28;2848;-61
2022/10/24 05:15:24;;;;;;;;;;;;;;;20.79;61.37;100494.78;5007287;28;2964;-62
2022/10/24 05:17:50;;;;;;;;;;;;;;;20.77;61.34;100496.84;5009289;28;2846;-62
2022/10/24 05:20:16;;;;;;;;;;;;;;;20.78;61.48;100501.97;5008928;28;2826;-61
2022/10/24 05:22:43;;;;;;;;;;;;;;;20.76;61.29;100496.13;5008160;28;3196;-61
2022/10/24 05:25:09;;;;;;;;;;;;;;;20.76;61.55;100496.13;5005056;28;2856;-61
2022/10/24 05:27:36;;;;;;;;;;;;;;;20.76;61.53;100509.78;5003087;28;3214;-59
2022/10/24 05:30:02;;;;;;;;;;;;;;;20.77;61.35;100517.72;5008641;28;2726;-60
2022/10/24 05:32:29;;;;;;;;;;;;;;;20.76;61.69;100512.66;5002568;28;2872;-58
2022/10/24 05:34:55;;;;;;;;;;;;;;;20.82;61.58;100493.50;5013048;28;3043;-58
2022/10/24 05:37:21;;;;;;;;;;;;;;;20.84;61.67;100490.66;5011169;28;2875;-58
2022/10/24 05:39:48;;;;;;;;;;;;;;;20.80;61.72;100490.53;5015010;28;2569;-58
2022/10/24 05:42:14;;;;;;;;;;;;;;;20.82;62.01;100490.63;5014141;28;2837;-59
2022/10/24 05:44:41;;;;;;;;;;;;;;;20.90;62.19;100493.06;5010258;28;3494;-63
2022/10/24 05:47:07;;;;;;;;;;;;;;;20.96;61.63;100496.16;5012334;28;2591;-67
2022/10/24 05:49:33;;;;;;;;;;;;;;;20.97;61.59;100497.63;5013727;28;2964;-61
2022/10/24 05:52:00;;;;;;;;;;;;;;;20.89;61.98;100497.31;5010947;28;2960;-61
2022/10/24 05:54:26;;;;;;;;;;;;;;;20.80;61.71;100493.41;5012032;28;3299;-61
2022/10/24 05:57:07;;;;;;;;;;;;;;;20.78;61.54;100481.81;5012555;28;2422;-61
2022/10/24 05:59:34;;;;;;;;;;;;;;;20.76;61.79;100478.13;5008578;28;3161;-62
2022/10/24 06:02:00;;;;;;;;;;;;;;;20.75;61.91;100470.88;5008549;28;3086;-62
2022/10/24 06:04:27;;;;;;;;;;;;;;;20.76;62.36;100472.38;5005365;28;3215;-62
2022/10/24 06:06:53;;;;;;;;;;;;;;;20.64;61.08;100473.38;5010946;28;3113;-63
2022/10/24 06:09:19;;;;;;;;;;;;;;;20.39;61.10;100471.66;5006199;28;2749;-63
2022/10/24 06:11:46;;;;;;;;;;;;;;;20.25;61.01;100479.69;5007667;28;2782;-63
2022/10/24 06:14:12;;;;;;;;;;;;;;;20.16;61.11;100477.88;5007898;28;2890;-62
2022/10/24 06:16:38;;;;;;;;;;;;;;;20.14;61.32;100486.44;5012765;28;2784;-62
2022/10/24 06:19:05;;;;;;;;;;;;;;;20.22;61.14;100475.25;5008418;28;3031;-57
2022/10/24 06:21:31;;;;;;;;;;;;;;;20.47;63.17;100466.19;5007281;28;3483;-62
2022/10/24 06:23:58;;;;;;;;;;;;;;;20.49;61.37;100474.91;5003689;28;3974;-65
2022/10/24 06:26:24;;;;;;;;;;;;;;;20.71;60.96;100471.47;5011499;28;4383;-68
2022/10/24 06:28:51;;;;;;;;;;;;;;;20.88;60.08;100482.19;5016607;28;3124;-68
2022/10/24 06:31:19;;;;;;;;;;;;;;;20.87;59.99;100472.09;5011351;28;3327;-69
2022/10/24 06:33:45;;;;;;;;;;;;;;;21.12;59.43;100468.00;5014656;28;2736;-65
2022/10/24 06:36:13;;;;;;;;;;;;;;;21.22;58.68;100476.25;5009940;28;3110;-65
2022/10/24 06:38:39;;;;;;;;;;;;;;;21.28;58.66;100473.59;5016923;28;1635;-67
2022/10/24 06:41:06;;;;;;;;;;;;;;;20.80;59.29;100479.03;5011066;28;3130;-69
2022/10/24 06:43:32;;;;;;;;;;;;;;;20.77;59.48;100483.19;5016230;28;3115;-68
2022/10/24 06:45:59;;;;;;;;;;;;;;;20.65;59.68;100480.59;5012308;28;3190;-65
2022/10/24 06:48:25;;;;;;;;;;;;;;;20.76;59.47;100483.88;5017208;28;3049;-65
2022/10/24 06:50:51;;;;;;;;;;;;;;;20.79;59.57;100486.16;5010503;28;4518;-65
2022/10/24 06:53:18;;;;;;;;;;;;;;;20.92;59.08;100490.25;5013232;28;2949;-63
2022/10/24 06:55:49;;;;;;;;;;;;;;;20.82;59.69;100499.25;5015683;28;2701;-62
2022/10/24 06:58:15;;;;;;;;;;;;;;;20.89;59.75;100498.06;5012949;28;3009;-62
2022/10/24 07:00:41;;;;;;;;;;;;;;;21.01;59.28;100505.69;5013933;28;2968;-63
2022/10/24 07:03:11;;;;;;;;;;;;;;;20.95;59.51;100511.94;5005857;28;3469;-63
2022/10/24 07:05:38;;;;;;;;;;;;;;;20.95;59.19;100519.84;5003077;28;2983;-63
2022/10/24 07:08:04;;;;;;;;;;;;;;;21.03;59.21;100523.06;5015107;28;2674;-65
2022/10/24 07:10:30;;;;;;;;;;;;;;;20.77;59.80;100520.59;5016656;28;2810;-64
2022/10/24 07:12:57;;;;;;;;;;;;;;;20.77;60.07;100520.59;5008943;28;3049;-63
2022/10/24 07:15:23;;;;;;;;;;;;;;;21.07;59.41;100523.94;5011825;28;2961;-62
2022/10/24 07:17:49;;;;;;;;;;;;;;;21.12;59.40;100524.84;5011598;28;2981;-63
2022/10/24 07:20:16;;;;;;;;;;;;;;;20.98;59.62;100524.28;5015025;28;3362;-62
2022/10/24 07:22:44;;;;;;;;;;;;;;;21.08;59.56;100522.53;5017071;28;3219;-64
2022/10/24 07:25:10;;;;;;;;;;;;;;;21.10;59.42;100524.75;5012302;28;3451;-65
2022/10/24 07:27:37;;;;;;;;;;;;;;;21.24;59.08;100524.56;5010257;28;3232;-65
2022/10/24 07:30:04;;;;;;;;;;;;;;;21.31;59.22;100527.00;5015352;28;2935;-65
2022/10/24 07:32:31;;;;;;;;;;;;;;;21.21;59.53;100520.09;5009601;28;3091;-62
2022/10/24 07:34:57;;;;;;;;;;;;;;;21.27;59.77;100517.47;5009994;28;2923;-65
2022/10/24 07:37:24;;;;;;;;;;;;;;;21.24;59.41;100533.19;5016337;28;3001;-67
2022/10/24 07:39:51;;;;;;;;;;;;;;;21.22;59.63;100527.34;5012530;28;3005;-63
2022/10/24 07:42:17;;;;;;;;;;;;;;;21.05;60.09;100535.38;5017183;28;2883;-66
2022/10/24 07:44:44;;;;;;;;;;;;;;;21.25;59.77;100538.28;5015997;28;2949;-65
2022/10/24 07:47:10;;;;;;;;;;;;;;;21.23;60.12;100528.81;5014356;28;2985;-64
2022/10/24 07:49:37;;;;;;;;;;;;;;;21.38;59.76;100538.75;5018667;28;3585;-65
2022/10/24 07:52:04;;;;;;;;;;;;;;;21.33;60.07;100537.84;5007706;28;3820;-65
2022/10/24 07:54:30;;;;;;;;;;;;;;;21.29;59.83;100538.44;5022406;28;2956;-63
2022/10/24 07:57:02;;;;;;;;;;;;;;;21.44;59.88;100541.84;5017077;28;3077;-66
2022/10/24 07:59:29;;;;;;;;;;;;;;;21.32;60.32;100539.97;5014046;28;3111;-64
2022/10/24 08:02:09;;;;;;;;;;;;;;;21.28;60.11;100531.19;5013758;28;3018;-68
2022/10/24 08:04:35;;;;;;;;;;;;;;;21.27;60.61;100526.09;5007009;28;2871;-67
2022/10/24 08:07:02;;;;;;;;;;;;;;;21.21;60.43;100526.63;5001001;28;3398;-65
2022/10/24 08:09:28;;;;;;;;;;;;;;;21.23;60.68;100528.81;5012762;28;3351;-67
2022/10/24 08:11:54;;;;;;;;;;;;;;;21.21;60.96;100532.38;5022908;28;3034;-64
2022/10/24 08:14:21;;;;;;;;;;;;;;;20.89;61.80;100526.84;5012966;28;2976;-64
2022/10/24 08:16:47;;;;;;;;;;;;;;;21.41;61.30;100523.75;5014968;28;3676;-66
2022/10/24 08:19:13;;;;;;;;;;;;;;;21.63;59.96;100518.09;5012870;28;3155;-69
2022/10/24 08:21:40;;;;;;;;;;;;;;;21.52;60.44;100524.88;5012606;28;3024;-65
2022/10/24 08:24:06;;;;;;;;;;;;;;;21.56;60.23;100527.91;5006288;28;2927;-67
2022/10/24 08:26:33;;;;;;;;;;;;;;;21.64;60.09;100522.44;5006709;28;3024;-70
2022/10/24 08:29:00;;;;;;;;;;;;;;;21.69;59.84;100524.06;5005336;28;3060;-68
2022/10/24 08:31:26;;;;;;;;;;;;;;;21.64;59.92;100522.44;5010561;28;2847;-61
2022/10/24 08:33:53;;;;;;;;;;;;;;;21.50;60.16;100519.03;5004316;28;2996;-63
2022/10/24 08:36:23;;;;;;;;;;;;;;;21.21;61.04;100515.09;5002075;28;3079;-68
2022/10/24 08:38:49;;;;;;;;;;;;;;;21.12;61.57;100519.09;5000336;28;3239;-66
2022/10/24 08:41:19;;;;;;;;;;;;;;;21.04;61.61;100524.53;5002717;28;4497;-67
2022/10/24 08:43:45;;;;;;;;;;;;;;;21.01;61.74;100502.81;5007214;28;3173;-66
2022/10/24 08:46:14;;;;;;;;;;;;;;;21.11;61.85;100520.47;5000258;28;3064;-71
2022/10/24 08:48:42;;;;;;;;;;;;;;;21.11;62.24;100512.56;5005083;28;2923;-68
2022/10/24 08:51:24;;;;;;;;;;;;;;;21.10;62.05;100510.38;5005495;28;3033;-67
2022/10/24 08:53:51;;;;;;;;;;;;;;;21.09;62.00;100506.00;5000622;28;3042;-68
2022/10/24 08:56:28;;;;;;;;;;;;;;;21.08;62.13;100496.63;5007742;28;3053;-69
2022/10/24 08:58:54;;;;;;;;;;;;;;;21.11;62.23;100506.06;5007368;28;3064;-69
2022/10/24 09:01:27;;;;;;;;;;;;;;;21.12;62.22;100513.31;5004179;28;3125;-65
2022/10/24 09:03:53;;;;;;;;;;;;;;;21.05;62.51;100514.47;5006273;28;3069;-69
2022/10/24 09:06:26;;;;;;;;;;;;;;;21.10;62.25;100510.38;5010284;28;2982;-70
2022/10/24 09:09:08;;;;;;;;;;;;;;;21.07;62.53;100517.44;5010464;28;2394;-70
2022/10/24 09:11:50;;;;;;;;;;;;;;;21.09;62.45;100514.63;5005404;28;3114;-70
2022/10/24 09:14:21;;;;;;;;;;;;;;;21.12;62.40;100514.06;5017508;28;3857;-69
2022/10/24 09:16:48;;;;;;;;;;;;;;;21.08;62.76;100513.91;5010465;28;3121;-69
2022/10/24 09:19:15;;;;;;;;;;;;;;;21.08;62.71;100508.13;5019493;28;3063;-68
2022/10/24 09:21:42;;;;;;;;;;;;;;;21.11;62.90;100514.72;5004632;28;3084;-71
2022/10/24 09:24:27;;;;;;;;;;;;;;;21.12;62.64;100508.28;5007532;28;3077;-68
2022/10/24 09:26:53;;;;;;;;;;;;;;;21.09;62.62;100509.59;5002105;28;3065;-68
2022/10/24 09:29:20;;;;;;;;;;;;;;;21.05;62.92;100515.22;5004076;28;4231;-69
2022/10/24 09:31:48;;;;;;;;;;;;;;;21.50;62.50;100514.00;5006323;28;3620;-71
2022/10/24 09:34:15;;;;;;;;;;;;;;;21.78;62.04;100510.66;5007380;28;3171;-66
2022/10/24 09:36:41;;;;;;;;;;;;;;;21.94;61.45;100519.13;5013337;28;3329;-67
2022/10/24 09:39:24;;;;;;;;;;;;;;;22.81;58.48;100509.00;5009183;28;3413;-65
2022/10/24 09:41:51;;;;;;;;;;;;;;;22.30;60.00;100505.25;5014714;28;2815;-66
2022/10/24 09:44:33;;;;;;;;;;;;;;;22.26;60.06;100505.09;5012817;28;3009;-66
2022/10/24 09:47:00;;;;;;;;;;;;;;;22.10;60.91;100510.31;5019578;28;4082;-64
2022/10/24 09:49:36;;;;;;;;;;;;;;;22.02;61.43;100519.44;5011695;28;3065;-65
2022/10/24 09:52:18;;;;;;;;;;;;;;;22.05;61.15;100526.72;5007454;28;3048;-64
2022/10/24 09:54:46;;;;;;;;;;;;;;;22.00;60.98;100522.25;5027072;28;3013;-65
2022/10/24 09:57:12;;;;;;;;;;;;;;;21.96;61.42;100513.44;5013067;28;2809;-62
2022/10/24 09:59:44;;;;;;;;;;;;;;;21.95;61.31;100523.50;5012617;28;2939;-63
2022/10/24 10:02:18;;;;;;;;;;;;;;;22.05;61.09;100526.72;5008328;28;2989;-62
2022/10/24 10:04:46;;;;;;;;;;;;;;;22.10;60.84;100519.69;5008964;28;4482;-61
2022/10/24 10:07:18;;;;;;;;;;;;;;;22.10;60.68;100513.19;5010364;28;3342;-62
2022/10/24 10:09:55;;;;;;;;;;;;;;;22.09;60.48;100515.34;5019511;28;3324;-62
2022/10/24 10:12:28;;;;;;;;;;;;;;;22.03;60.96;100506.47;5021483;28;2971;-63
2022/10/24 10:14:54;;;;;;;;;;;;;;;21.92;60.86;100508.28;5014350;28;3072;-63
2022/10/24 10:17:22;;;;;;;;;;;;;;;21.64;61.92;100508.03;5009367;28;2915;-63
2022/10/24 10:19:48;;;;;;;;;;;;;;;21.98;60.83;100518.56;5024883;28;3090;-62
2022/10/24 10:22:27;;;;;;;;;;;;;;;21.79;61.19;100512.16;5002220;28;3590;-61
2022/10/24 10:24:54;;;;;;;;;;;;;;;21.88;61.26;100502.38;5002005;28;4358;-72
2022/10/24 10:27:23;;;;;;;;;;;;;;;21.83;61.49;100497.91;5008273;28;4496;-67
2022/10/24 10:30:08;;;;;;;;;;;;;;;21.70;61.96;100498.88;5005007;28;2970;-64
2022/10/24 10:32:37;;;;;;;;;;;;;;;22.24;60.76;100501.41;5005713;28;3001;-64
2022/10/24 10:35:10;;;;;;;;;;;;;;;22.57;60.02;100506.84;5012444;28;2960;-62
2022/10/24 10:38:06;;;;;;;;;;;;;;;22.46;59.78;100505.03;5022026;28;3231;-69
2022/10/24 10:40:33;;;;;;;;;;;;;;;22.34;59.88;100504.66;5004921;28;3237;-71
2022/10/24 10:43:19;;;;;;;;;;;;;;;22.37;60.02;100503.28;5002810;28;4699;-72
2022/10/24 10:45:46;;;;;;;;;;;;;;;22.37;60.11;100500.41;5006049;28;3086;-68
2022/10/24 10:48:32;;;;;;;;;;;;;;;22.37;60.13;100497.53;5010821;28;2933;-69
2022/10/24 10:51:17;;;;;;;;;;;;;;;22.41;59.89;100483.25;5013566;28;2788;-72
2022/10/24 10:53:59;;;;;;;;;;;;;;;22.32;59.74;100493.03;5013488;28;3207;-72
2022/10/24 10:56:33;;;;;;;;;;;;;;;22.37;59.81;100497.53;5014907;28;3271;-69
2022/10/24 10:59:06;;;;;;;;;;;;;;;22.37;59.71;100506.19;5028451;28;3107;-76
2022/10/24 11:01:38;;;;;;;;;;;;;;;22.37;59.81;100500.41;5006532;28;4611;-68
2022/10/24 11:04:20;;;;;;;;;;;;;;;22.31;60.10;100489.44;5020525;28;2972;-72
2022/10/24 11:07:04;;;;;;;;;;;;;;;22.27;60.31;100485.66;5012513;28;3040;-71
2022/10/24 11:09:32;;;;;;;;;;;;;;;22.32;60.28;100490.16;5008040;28;3046;-71
2022/10/24 11:12:27;;;;;;;;;;;;;;;22.40;59.83;100481.75;5012124;28;3146;-78
2022/10/24 11:14:56;;;;;;;;;;;;;;;22.38;59.77;100473.78;5014122;28;3075;-73
2022/10/24 11:17:23;;;;;;;;;;;;;;;22.31;59.80;100482.91;5018813;28;3066;-73
2022/10/24 11:19:54;;;;;;;;;;;;;;;22.37;59.63;100486.00;5011042;28;3200;-72
2022/10/24 11:22:24;;;;;;;;;;;;;;;22.39;59.82;100483.16;5016131;28;3069;-70
2022/10/24 11:24:59;;;;;;;;;;;;;;;22.37;59.58;100488.88;5012724;28;3000;-70
2022/10/24 11:27:31;;;;;;;;;;;;;;;22.41;60.08;100491.16;5011948;28;3042;-70
2022/10/24 11:30:06;;;;;;;;;;;;;;;22.45;59.83;100497.81;5011957;28;2979;-72
2022/10/24 11:32:50;;;;;;;;;;;;;;;22.45;59.81;100494.91;5012618;28;2823;-70
2022/10/24 11:35:24;;;;;;;;;;;;;;;22.54;59.08;100488.00;5017552;28;2939;-69
2022/10/24 11:37:52;;;;;;;;;;;;;;;22.45;59.61;100491.28;5025553;28;3143;-60
2022/10/24 11:40:19;;;;;;;;;;;;;;;22.48;59.72;100490.66;5028011;28;3066;-62
2022/10/24 11:43:01;;;;;;;;;;;;;;;22.76;58.53;100487.94;5013882;28;3001;-61
2022/10/24 11:45:30;;;;;;;;;;;;;;;22.92;58.07;100484.06;5010883;28;3046;-62
2022/10/24 11:48:04;;;;;;;;;;;;;;;22.92;57.99;100496.34;5013946;28;3041;-64
2022/10/24 11:50:38;;;;;;;;;;;;;;;23.08;58.13;100486.72;5023626;28;3093;-63
2022/10/24 11:53:12;;;;;;;;;;;;;;;22.78;58.43;100487.25;5015510;28;3120;-63
2022/10/24 11:55:40;;;;;;;;;;;;;;;22.62;58.13;100483.88;5008925;28;3205;-65
2022/10/24 11:58:12;;;;;;;;;;;;;;;22.87;58.39;100479.59;5042948;28;3104;-64
2022/10/24 12:00:45;;;;;;;;;;;;;;;22.82;58.11;100484.50;5006550;28;2939;-65
2022/10/24 12:03:15;;;;;;;;;;;;;;;22.64;58.48;100472.41;5009092;28;5080;-71
2022/10/24 12:06:00;;;;;;;;;;;;;;;22.63;58.67;100470.91;5005879;28;4724;-64
2022/10/24 12:08:45;;;;;;;;;;;;;;;22.69;58.30;100468.97;5005588;28;2986;-66
2022/10/24 12:11:14;;;;;;;;;;;;;;;22.72;58.20;100472.63;5009374;28;3096;-66
2022/10/24 12:13:40;;;;;;;;;;;;;;;22.88;58.42;100455.06;5013960;28;3253;-62
2022/10/24 12:16:26;;;;;;;;;;;;;;;22.77;58.57;100451.16;5007693;28;3061;-63
2022/10/24 12:18:56;;;;;;;;;;;;;;;22.85;57.94;100444.88;5008762;28;2947;-64
2022/10/24 12:21:24;;;;;;;;;;;;;;;22.72;58.09;100446.66;5012623;28;2993;-64
2022/10/24 12:23:52;;;;;;;;;;;;;;;22.73;58.98;100439.50;5018550;28;3256;-60
2022/10/24 12:26:19;;;;;;;;;;;;;;;22.79;58.39;100437.53;5018546;28;3229;-68
2022/10/24 12:28:52;;;;;;;;;;;;;;;22.73;58.08;100439.50;5020799;28;3046;-64
2022/10/24 12:31:19;;;;;;;;;;;;;;;22.72;58.29;100438.00;5036093;28;2956;-67
2022/10/24 12:34:10;;;;;;;;;;;;;;;22.82;58.23;100435.44;5019675;28;3055;-66
2022/10/24 12:36:54;;;;;;;;;;;;;;;22.79;58.20;100448.31;5017818;28;3223;-69
2022/10/24 12:39:31;;;;;;;;;;;;;;;22.77;58.04;100439.63;5023200;28;3010;-67
2022/10/24 12:41:58;;;;;;;;;;;;;;;22.78;58.05;100420.88;5014080;28;2972;-64
2022/10/24 12:44:35;;;;;;;;;;;;;;;22.75;58.26;100425.84;5002205;28;4497;-61
2022/10/24 12:47:01;;;;;;;;;;;;;;;22.90;58.18;100424.09;5014595;28;3081;-62
2022/10/24 12:49:28;;;;;;;;;;;;;;;23.00;57.98;100433.09;5010205;28;3390;-63
2022/10/24 12:51:54;;;;;;;;;;;;;;;22.78;58.34;100429.53;5008417;28;3647;-63
2022/10/24 12:54:37;;;;;;;;;;;;;;;22.86;58.11;100435.56;5003561;28;4708;-64
2022/10/24 12:57:03;;;;;;;;;;;;;;;22.86;57.83;100440.56;5006318;28;2992;-62
2022/10/24 12:59:30;;;;;;;;;;;;;;;23.11;57.54;100425.47;5006239;28;4206;-62